Time;durP1;ratioP1;P1;durP2;ratioP2;P2;SDS_P1;SDS_P2;PMS_P1;PMS_P2;Temp;Humidity;BMP_temperature;BMP_pressure;BME280_temperature;BME280_humidity;BME280_pressure;Samples;Min_cycle;Max_cycle;Signal;HPM_P1;HPM_P2
2023/01/05 00:01:08;;;;;;;24.45;5.00;;;9.40;92.70;;;;;;5036401;28;20029;-47
2023/01/05 00:03:35;;;;;;;20.23;4.65;;;9.40;93.00;;;;;;5053428;28;20116;-60
2023/01/05 00:06:06;;;;;;;31.15;5.22;;;9.40;93.20;;;;;;5033560;28;20037;-60
2023/01/05 00:08:33;;;;;;;23.15;4.15;;;9.40;93.30;;;;;;5030123;28;20105;-62
2023/01/05 00:22:29;;;;;;;17.20;4.10;;;9.20;94.00;;;;;;5033637;28;20553;-63
2023/01/05 00:25:00;;;;;;;22.45;5.55;;;9.10;94.10;;;;;;5032334;28;20047;-66
2023/01/05 00:27:27;;;;;;;20.23;4.95;;;9.10;94.20;;;;;;5034008;28;20332;-60
2023/01/05 00:29:56;;;;;;;27.33;4.65;;;9.10;94.30;;;;;;5010185;28;20037;-63
2023/01/05 00:32:22;;;;;;;28.42;8.23;;;9.10;94.40;;;;;;5033621;28;20505;-64
2023/01/05 00:34:49;;;;;;;25.23;5.32;;;9.10;94.40;;;;;;5041207;28;20113;-58
2023/01/05 00:37:18;;;;;;;23.20;4.38;;;9.00;94.50;;;;;;5049810;28;20037;-57
2023/01/05 00:39:47;;;;;;;24.17;5.38;;;9.00;94.60;;;;;;5032165;28;20041;-63
2023/01/05 00:42:14;;;;;;;21.52;4.85;;;9.00;94.60;;;;;;5025352;28;20041;-65
2023/01/05 00:44:41;;;;;;;23.58;4.55;;;9.00;94.60;;;;;;5019369;28;20471;-64
2023/01/05 00:47:07;;;;;;;19.63;4.32;;;9.00;94.60;;;;;;5040049;28;20083;-63
2023/01/05 00:49:34;;;;;;;19.42;3.38;;;8.90;94.70;;;;;;5053316;28;20033;-63
2023/01/05 00:52:01;;;;;;;8.85;2.78;;;8.90;94.70;;;;;;5045181;28;20075;-64
2023/01/05 00:54:27;;;;;;;11.05;2.88;;;8.90;94.70;;;;;;5031583;28;20048;-61
2023/01/05 00:56:54;;;;;;;8.95;1.95;;;8.90;94.70;;;;;;5052586;28;20021;-59
2023/01/05 00:59:21;;;;;;;8.80;2.40;;;8.80;94.70;;;;;;5037149;28;20439;-56
2023/01/05 01:01:49;;;;;;;9.25;1.92;;;8.70;94.80;;;;;;5029716;28;20064;-57
2023/01/05 01:04:19;;;;;;;6.07;1.73;;;8.70;94.80;;;;;;5031313;28;20057;-52
2023/01/05 01:06:46;;;;;;;19.88;2.88;;;8.70;94.80;;;;;;5026555;28;20462;-51
2023/01/05 01:09:13;;;;;;;17.45;3.35;;;8.70;94.80;;;;;;5032774;28;20037;-52
2023/01/05 01:11:41;;;;;;;24.65;4.70;;;8.80;94.90;;;;;;5035095;28;20051;-59
2023/01/05 01:14:13;;;;;;;16.73;2.90;;;8.80;94.90;;;;;;5043243;28;20038;-64
2023/01/05 01:16:41;;;;;;;9.02;2.28;;;8.80;94.90;;;;;;5027184;28;20025;-63
2023/01/05 01:19:16;;;;;;;15.73;2.55;;;8.80;94.90;;;;;;5011823;28;20041;-59
2023/01/05 01:21:46;;;;;;;15.40;3.42;;;8.80;94.90;;;;;;5025908;28;20032;-57
2023/01/05 01:24:21;;;;;;;15.55;3.30;;;8.80;94.90;;;;;;5032820;28;20084;-56
2023/01/05 01:26:48;;;;;;;16.60;3.28;;;8.80;95.00;;;;;;5037774;28;20365;-52
2023/01/05 01:29:16;;;;;;;19.98;3.53;;;8.70;94.90;;;;;;5030690;28;20475;-54
2023/01/05 01:31:42;;;;;;;16.90;3.70;;;8.80;94.90;;;;;;5013013;28;20432;-53
2023/01/05 01:34:10;;;;;;;15.27;3.17;;;8.80;94.90;;;;;;5033439;28;20095;-53
2023/01/05 01:36:37;;;;;;;21.00;4.18;;;8.80;94.90;;;;;;5035567;28;20030;-49
2023/01/05 01:39:04;;;;;;;10.00;2.10;;;8.70;94.80;;;;;;5016785;28;20447;-49
2023/01/05 01:41:33;;;;;;;6.30;1.80;;;8.70;94.80;;;;;;5015750;28;20057;-48
2023/01/05 01:44:00;;;;;;;5.43;1.00;;;8.70;94.70;;;;;;5029978;28;20037;-51
2023/01/05 01:46:28;;;;;;;4.53;1.27;;;8.60;94.70;;;;;;5026702;28;20034;-50
2023/01/05 01:49:12;;;;;;;7.32;1.25;;;8.70;94.70;;;;;;5032070;28;20026;-51
2023/01/05 01:51:56;;;;;;;4.25;1.13;;;8.60;94.60;;;;;;5031863;28;20072;-49
2023/01/05 01:54:24;;;;;;;6.82;1.63;;;8.60;94.60;;;;;;5030241;28;20175;-54
2023/01/05 01:56:54;;;;;;;4.32;1.40;;;8.60;94.50;;;;;;5032012;28;20038;-55
2023/01/05 01:59:23;;;;;;;7.40;1.40;;;8.60;94.40;;;;;;5032547;28;20021;-55
2023/01/05 02:01:55;;;;;;;3.95;1.20;;;8.50;94.30;;;;;;5018206;28;20560;-55
2023/01/05 02:04:23;;;;;;;4.65;0.90;;;8.50;94.20;;;;;;5054876;28;20446;-57
2023/01/05 02:06:49;;;;;;;4.82;1.20;;;8.40;94.20;;;;;;5016529;28;20045;-52
2023/01/05 02:09:16;;;;;;;3.78;1.30;;;8.40;94.20;;;;;;5015694;28;20041;-52
2023/01/05 02:12:36;;;;;;;8.52;1.15;;;8.40;94.30;;;;;;5030688;28;20490;-51
2023/01/05 02:15:30;;;;;;;6.90;0.93;;;8.40;94.30;;;;;;5026252;28;20451;-51
2023/01/05 02:18:27;;;;;;;9.50;1.05;;;8.30;94.30;;;;;;5034322;28;20037;-52
2023/01/05 02:21:24;;;;;;;5.75;1.60;;;8.40;94.30;;;;;;5035767;28;20061;-48
2023/01/05 02:24:27;;;;;;;5.60;1.10;;;8.40;94.30;;;;;;5025617;28;20557;-51
2023/01/05 02:27:14;;;;;;;5.47;1.02;;;8.40;94.30;;;;;;5025942;28;20502;-50
2023/01/05 02:30:04;;;;;;;10.73;2.45;;;8.30;94.30;;;;;;5035243;28;20037;-51
2023/01/05 02:32:32;;;;;;;8.27;1.15;;;8.40;94.20;;;;;;5022040;28;20029;-48
2023/01/05 02:35:31;;;;;;;6.70;1.05;;;8.30;94.10;;;;;;5055850;28;20039;-46
2023/01/05 02:38:17;;;;;;;8.57;1.20;;;8.40;93.90;;;;;;5034722;28;20057;-50
2023/01/05 02:40:47;;;;;;;6.00;0.95;;;8.40;93.80;;;;;;5030170;28;20387;-48
2023/01/05 02:43:19;;;;;;;9.20;1.02;;;8.40;93.70;;;;;;5036804;28;20033;-47
2023/01/05 02:45:45;;;;;;;3.50;0.95;;;8.40;93.60;;;;;;5037703;28;20025;-48
2023/01/05 02:48:12;;;;;;;6.85;2.42;;;8.40;93.50;;;;;;5034020;28;20041;-46
2023/01/05 02:50:50;;;;;;;3.53;1.35;;;8.40;93.50;;;;;;5034769;28;20038;-47
2023/01/05 02:53:29;;;;;;;5.32;1.20;;;8.40;93.40;;;;;;5035673;28;20037;-46
2023/01/05 02:56:25;;;;;;;3.90;0.90;;;8.40;93.30;;;;;;5031880;28;20033;-47
2023/01/05 02:58:53;;;;;;;3.97;1.02;;;8.40;93.10;;;;;;5033263;28;20033;-44
2023/01/05 03:01:37;;;;;;;2.95;1.00;;;8.50;93.00;;;;;;5036001;28;20049;-50
2023/01/05 03:04:13;;;;;;;3.35;0.80;;;8.50;93.10;;;;;;5023271;28;20104;-51
2023/01/05 03:07:02;;;;;;;6.43;1.08;;;8.50;93.20;;;;;;5034866;28;20053;-49
2023/01/05 03:09:37;;;;;;;;;;;8.50;93.30;;;;;;5031502;28;20025;-46
2023/01/05 03:15:27;;;;;;;8.93;1.10;;;8.50;93.40;;;;;;5033270;28;20099;-46
2023/01/05 03:18:03;;;;;;;6.13;0.90;;;8.50;93.50;;;;;;5033872;28;20033;-48
2023/01/05 03:20:33;;;;;;;5.95;0.98;;;8.40;93.50;;;;;;5033961;28;20056;-46
2023/01/05 03:38:29;;;;;;;7.18;1.40;;;8.30;93.50;;;;;;5034654;28;20044;-47
2023/01/05 03:40:59;;;;;;;10.85;1.17;;;8.20;93.50;;;;;;5032320;28;20029;-47
2023/01/05 03:43:26;;;;;;;5.88;1.10;;;8.20;93.50;;;;;;5014226;28;20034;-45
2023/01/05 03:45:54;;;;;;;8.73;2.10;;;8.20;93.50;;;;;;5014822;28;20503;-47
2023/01/05 03:48:24;;;;;;;7.20;1.27;;;8.20;93.50;;;;;;5016233;28;20042;-45
2023/01/05 03:50:53;;;;;;;9.10;1.75;;;8.20;93.50;;;;;;5014043;28;20037;-48
2023/01/05 03:53:20;;;;;;;18.05;2.28;;;8.20;93.50;;;;;;5015176;28;20105;-47
2023/01/05 03:55:46;;;;;;;7.97;2.33;;;8.20;93.50;;;;;;5031222;28;20025;-46
2023/01/05 03:58:13;;;;;;;9.38;1.90;;;8.10;93.50;;;;;;5053523;28;20108;-48
2023/01/05 04:00:40;;;;;;;8.63;1.60;;;8.20;93.50;;;;;;5026644;28;20026;-48
2023/01/05 04:03:07;;;;;;;8.60;1.40;;;8.10;93.40;;;;;;5025554;28;20025;-48
2023/01/05 04:05:33;;;;;;;9.80;1.70;;;8.20;93.30;;;;;;5042162;28;20025;-47
2023/01/05 04:07:59;;;;;;;10.05;1.85;;;8.20;93.30;;;;;;5054065;28;20150;-48
2023/01/05 04:10:26;;;;;;;12.10;1.80;;;8.20;93.20;;;;;;5054479;28;20112;-47
2023/01/05 04:12:52;;;;;;;12.98;2.10;;;8.20;93.30;;;;;;5025952;28;20029;-50
2023/01/05 04:15:18;;;;;;;7.53;1.70;;;8.20;93.30;;;;;;5049965;28;20075;-48
2023/01/05 04:17:44;;;;;;;8.57;2.13;;;8.20;93.20;;;;;;5034088;28;20073;-46
2023/01/05 04:20:10;;;;;;;14.32;2.00;;;8.20;93.30;;;;;;5032292;28;20033;-49
2023/01/05 04:22:38;;;;;;;10.60;1.63;;;8.20;93.30;;;;;;5031951;28;20044;-48
2023/01/05 04:25:13;;;;;;;7.72;2.47;;;8.10;93.30;;;;;;5030410;28;20029;-45
2023/01/05 04:27:42;;;;;;;8.40;1.83;;;8.20;93.40;;;;;;5033822;28;20029;-46
2023/01/05 04:30:09;;;;;;;11.50;2.22;;;8.10;93.50;;;;;;5033297;28;20025;-45
2023/01/05 04:32:35;;;;;;;18.83;2.70;;;8.20;93.70;;;;;;5016882;28;20041;-46
2023/01/05 04:35:03;;;;;;;18.85;2.65;;;8.20;93.90;;;;;;5026830;28;20096;-48
2023/01/05 04:37:29;;;;;;;16.98;3.53;;;8.30;93.90;;;;;;5047570;28;20040;-44
2023/01/05 04:39:56;;;;;;;15.80;3.45;;;8.20;93.80;;;;;;5050054;28;20458;-44
2023/01/05 04:42:24;;;;;;;14.57;4.28;;;8.20;93.80;;;;;;5053688;28;20032;-47
2023/01/05 04:44:51;;;;;;;11.75;3.97;;;8.20;93.90;;;;;;5038710;28;20057;-46
2023/01/05 04:47:17;;;;;;;13.57;3.00;;;8.20;93.90;;;;;;5020687;28;20041;-51
2023/01/05 04:49:44;;;;;;;18.08;3.60;;;8.30;93.80;;;;;;5029378;28;20113;-50
2023/01/05 04:52:11;;;;;;;13.85;2.60;;;8.30;93.80;;;;;;5031921;28;20034;-47
2023/01/05 04:54:38;;;;;;;16.90;2.95;;;8.30;93.90;;;;;;5031700;28;20040;-45
2023/01/05 04:57:05;;;;;;;12.23;2.88;;;8.30;93.90;;;;;;5039888;28;20057;-45
2023/01/05 04:59:32;;;;;;;12.32;2.38;;;8.20;93.80;;;;;;5043123;28;20035;-49
2023/01/05 05:01:59;;;;;;;12.68;2.00;;;8.20;93.80;;;;;;5031960;28;20025;-48
2023/01/05 05:04:25;;;;;;;18.58;2.15;;;8.20;93.80;;;;;;5032717;28;20501;-46
2023/01/05 05:06:55;;;;;;;10.57;2.42;;;8.20;93.80;;;;;;5036769;28;20081;-46
2023/01/05 05:09:22;;;;;;;9.40;2.08;;;8.20;93.80;;;;;;5032632;28;20108;-46
2023/01/05 05:11:49;;;;;;;14.60;2.67;;;8.10;93.80;;;;;;5031745;28;20040;-49
2023/01/05 05:14:15;;;;;;;18.50;4.03;;;8.10;93.80;;;;;;5030030;28;20120;-47
2023/01/05 05:16:42;;;;;;;13.80;2.83;;;8.10;93.70;;;;;;5023846;28;20125;-47
2023/01/05 05:19:09;;;;;;;20.48;4.63;;;8.10;93.80;;;;;;5026418;28;20501;-47
2023/01/05 05:21:36;;;;;;;14.68;2.80;;;8.00;93.70;;;;;;5024119;28;20044;-45
2023/01/05 05:24:02;;;;;;;19.15;2.95;;;8.00;93.70;;;;;;5026597;28;20021;-46
2023/01/05 05:26:29;;;;;;;13.38;3.00;;;7.90;93.60;;;;;;5022697;28;20130;-46
2023/01/05 05:28:58;;;;;;;11.13;2.80;;;7.90;93.60;;;;;;5021644;28;20034;-47
2023/01/05 05:31:25;;;;;;;15.10;2.90;;;7.90;93.60;;;;;;5021521;28;20061;-49
2023/01/05 05:33:54;;;;;;;18.38;3.03;;;7.90;93.60;;;;;;5022482;28;20041;-47
2023/01/05 05:36:21;;;;;;;12.20;2.85;;;7.90;93.70;;;;;;5021131;28;20104;-49
2023/01/05 05:38:48;;;;;;;11.40;2.67;;;7.90;93.80;;;;;;5022994;28;20459;-47
2023/01/05 05:41:15;;;;;;;13.35;2.05;;;7.90;93.90;;;;;;5024217;28;20039;-44
2023/01/05 05:43:40;;;;;;;18.95;3.25;;;7.90;93.90;;;;;;5022911;28;20060;-47
2023/01/05 05:46:07;;;;;;;19.30;2.63;;;7.90;94.00;;;;;;5025149;28;20057;-45
2023/01/05 05:48:33;;;;;;;17.10;3.88;;;7.90;94.10;;;;;;5022547;28;20032;-47
2023/01/05 05:51:03;;;;;;;11.98;3.03;;;7.90;94.10;;;;;;5021883;28;20025;-46
2023/01/05 05:53:30;;;;;;;19.08;3.95;;;7.90;94.10;;;;;;5027573;28;20034;-49
2023/01/05 05:55:56;;;;;;;19.75;4.57;;;7.90;94.00;;;;;;5020366;28;20100;-45
2023/01/05 05:58:23;;;;;;;19.27;3.63;;;7.80;94.10;;;;;;5022519;28;20017;-46
2023/01/05 06:00:48;;;;;;;16.20;3.33;;;7.70;94.00;;;;;;5024494;28;20069;-48
2023/01/05 06:03:14;;;;;;;10.75;2.38;;;7.70;94.00;;;;;;5023183;28;20064;-47
2023/01/05 06:05:41;;;;;;;18.10;4.35;;;7.70;93.90;;;;;;5029746;28;20073;-45
2023/01/05 06:08:08;;;;;;;16.83;3.78;;;7.60;93.90;;;;;;5019110;28;20040;-45
2023/01/05 06:10:35;;;;;;;15.85;3.30;;;7.60;93.90;;;;;;5020288;28;20346;-51
2023/01/05 06:13:03;;;;;;;16.08;3.33;;;7.60;93.90;;;;;;5021842;28;20461;-47
2023/01/05 06:15:30;;;;;;;17.08;3.90;;;7.60;93.80;;;;;;5038661;28;20040;-46
2023/01/05 06:17:58;;;;;;;27.10;3.72;;;7.50;93.80;;;;;;5013792;28;20072;-46
2023/01/05 06:20:24;;;;;;;22.55;4.65;;;7.50;93.60;;;;;;5029938;28;20040;-47
2023/01/05 06:22:55;;;;;;;25.10;4.35;;;7.40;93.60;;;;;;5029732;28;20041;-46
2023/01/05 06:25:30;;;;;;;20.42;3.25;;;7.50;93.70;;;;;;5025578;28;20096;-49
2023/01/05 06:27:56;;;;;;;32.85;4.93;;;7.40;93.60;;;;;;5017165;28;20502;-51
2023/01/05 06:30:24;;;;;;;30.73;4.22;;;7.40;93.60;;;;;;5021456;28;20308;-48
2023/01/05 06:32:50;;;;;;;14.05;3.20;;;7.40;93.60;;;;;;5025863;28;20037;-47
2023/01/05 06:35:17;;;;;;;21.73;3.35;;;7.40;93.70;;;;;;5029914;28;20026;-46
2023/01/05 06:37:44;;;;;;;20.77;4.50;;;7.30;93.70;;;;;;5027580;28;20109;-48
2023/01/05 06:40:12;;;;;;;24.02;4.40;;;7.40;93.80;;;;;;5031272;28;20043;-48
2023/01/05 06:42:39;;;;;;;22.50;3.63;;;7.40;93.90;;;;;;5021109;28;20033;-48
2023/01/05 06:45:09;;;;;;;18.42;4.30;;;7.40;93.90;;;;;;5032449;28;20056;-47
2023/01/05 06:47:35;;;;;;;24.23;3.53;;;7.50;94.00;;;;;;5043926;28;20108;-48
2023/01/05 06:50:02;;;;;;;25.42;4.00;;;7.50;94.00;;;;;;5035632;28;20026;-50
2023/01/05 06:52:35;;;;;;;30.48;3.85;;;7.50;93.90;;;;;;5035646;28;20366;-48
2023/01/05 06:55:03;;;;;;;26.13;3.70;;;7.50;93.90;;;;;;5035607;28;20025;-49
2023/01/05 06:57:30;;;;;;;27.45;4.78;;;7.50;93.90;;;;;;5031500;28;20454;-46
2023/01/05 07:00:06;;;;;;;21.98;4.18;;;7.50;93.90;;;;;;5023281;28;20052;-50
2023/01/05 07:02:33;;;;;;;21.08;4.07;;;7.40;93.80;;;;;;5016143;28;20053;-49
2023/01/05 07:04:59;;;;;;;25.48;3.85;;;7.50;93.80;;;;;;5021499;28;20044;-46
2023/01/05 07:07:26;;;;;;;14.60;4.57;;;7.50;93.80;;;;;;5027299;28;20049;-48
2023/01/05 07:09:53;;;;;;;19.65;3.78;;;7.40;93.70;;;;;;5023924;28;20428;-46
2023/01/05 07:12:22;;;;;;;23.48;4.35;;;7.50;93.70;;;;;;5030700;28;20025;-48
2023/01/05 07:14:49;;;;;;;23.70;4.30;;;7.50;93.60;;;;;;5022641;28;20026;-46
2023/01/05 07:17:16;;;;;;;18.80;4.57;;;7.40;93.60;;;;;;5028721;28;20352;-48
2023/01/05 07:19:43;;;;;;;21.95;4.63;;;7.40;93.50;;;;;;5033786;28;20095;-47
2023/01/05 07:22:09;;;;;;;24.02;4.95;;;7.40;93.50;;;;;;5029255;28;20069;-47
2023/01/05 07:24:40;;;;;;;21.08;3.92;;;7.30;93.40;;;;;;5023281;28;20136;-47
2023/01/05 07:27:07;;;;;;;29.95;4.05;;;7.20;93.40;;;;;;5034010;28;20030;-49
2023/01/05 07:29:34;;;;;;;19.48;3.13;;;7.20;93.40;;;;;;5032909;28;20566;-48
2023/01/05 07:32:01;;;;;;;20.10;3.67;;;7.10;93.50;;;;;;5029071;28;20098;-49
2023/01/05 07:34:27;;;;;;;17.10;3.13;;;7.10;93.50;;;;;;5016560;28;20041;-48
2023/01/05 07:36:54;;;;;;;21.10;3.40;;;7.00;93.50;;;;;;5021014;28;20506;-47
2023/01/05 07:39:21;;;;;;;15.43;3.40;;;7.00;93.50;;;;;;5030372;28;20113;-46
2023/01/05 07:41:48;;;;;;;24.75;3.53;;;7.00;93.50;;;;;;5032451;28;20524;-46
2023/01/05 07:44:14;;;;;;;21.08;5.45;;;7.00;93.60;;;;;;5027808;28;20030;-47
2023/01/05 07:46:41;;;;;;;19.05;3.60;;;7.00;93.60;;;;;;5029012;28;20663;-46
2023/01/05 07:49:08;;;;;;;20.35;3.63;;;6.90;93.70;;;;;;5021867;28;20045;-50
2023/01/05 07:51:36;;;;;;;16.08;3.55;;;6.90;93.60;;;;;;5018496;28;20327;-46
2023/01/05 07:54:03;;;;;;;25.23;5.35;;;6.90;93.60;;;;;;5039775;28;20074;-52
2023/01/05 07:56:29;;;;;;;15.75;2.80;;;6.90;93.60;;;;;;5022822;28;20064;-48
2023/01/05 07:58:56;;;;;;;27.13;3.72;;;6.90;93.60;;;;;;5027696;28;20176;-49
2023/01/05 08:01:26;;;;;;;19.13;3.20;;;6.90;93.60;;;;;;5021125;28;20034;-50
2023/01/05 08:03:56;;;;;;;16.80;3.10;;;6.90;93.60;;;;;;5033951;28;20463;-50
2023/01/05 08:06:27;;;;;;;25.60;6.07;;;6.90;93.60;;;;;;5029327;28;20132;-48
2023/01/05 08:08:55;;;;;;;20.25;4.00;;;6.90;93.70;;;;;;5040634;28;20034;-47
2023/01/05 08:11:21;;;;;;;22.02;3.85;;;6.90;93.70;;;;;;5028415;28;20028;-51
2023/01/05 08:13:59;;;;;;;20.35;3.60;;;6.90;93.70;;;;;;5032469;28;20026;-46
2023/01/05 08:16:27;;;;;;;21.83;5.13;;;7.00;93.70;;;;;;5025488;28;20030;-47
2023/01/05 08:18:57;;;;;;;27.30;4.47;;;6.90;93.60;;;;;;5025114;28;20025;-50
2023/01/05 08:21:24;;;;;;;14.07;2.88;;;6.90;93.60;;;;;;5029580;28;20620;-50
2023/01/05 08:23:52;;;;;;;16.85;3.67;;;7.00;93.80;;;;;;5025319;28;20025;-48
2023/01/05 08:26:23;;;;;;;17.60;3.20;;;7.00;93.60;;;;;;5032275;28;20030;-47
2023/01/05 08:28:49;;;;;;;17.77;5.60;;;7.00;93.30;;;;;;5030774;28;20033;-49
2023/01/05 08:31:28;;;;;;;25.10;3.10;;;7.00;93.50;;;;;;5028730;28;20087;-50
2023/01/05 08:33:58;;;;;;;26.05;5.30;;;7.00;93.20;;;;;;5025904;28;20104;-51
2023/01/05 08:36:26;;;;;;;16.40;3.47;;;7.00;93.20;;;;;;5032912;28;20041;-48
2023/01/05 08:38:56;;;;;;;22.80;2.97;;;7.00;93.20;;;;;;5030211;28;20035;-49
2023/01/05 08:41:27;;;;;;;20.42;4.10;;;7.00;93.20;;;;;;5026884;28;20530;-49
2023/01/05 08:43:56;;;;;;;18.88;4.28;;;7.00;93.20;;;;;;5032825;28;20079;-48
2023/01/05 08:46:26;;;;;;;18.98;3.75;;;7.00;93.30;;;;;;5030678;28;20026;-49
2023/01/05 08:48:55;;;;;;;16.23;3.28;;;7.10;93.30;;;;;;5031364;28;20455;-51
2023/01/05 08:51:22;;;;;;;17.25;3.65;;;7.10;93.20;;;;;;5031855;28;20029;-48
2023/01/05 08:53:49;;;;;;;24.33;6.40;;;7.20;93.50;;;;;;5032913;28;20026;-50
2023/01/05 08:56:17;;;;;;;20.50;3.67;;;7.20;93.40;;;;;;5037818;28;20421;-47
2023/01/05 08:58:46;;;;;;;20.67;3.58;;;7.20;93.30;;;;;;5040193;28;20418;-46
2023/01/05 09:01:17;;;;;;;18.25;3.20;;;7.30;93.50;;;;;;5025936;28;20029;-50
2023/01/05 09:03:44;;;;;;;22.63;4.38;;;7.40;93.50;;;;;;5026252;28;20033;-46
2023/01/05 09:06:12;;;;;;;20.27;4.90;;;7.50;93.30;;;;;;5024098;28;20050;-48
2023/01/05 09:08:40;;;;;;;18.23;3.45;;;7.50;93.30;;;;;;5030273;28;20091;-49
2023/01/05 09:11:17;;;;;;;19.67;4.10;;;7.70;93.50;;;;;;5029684;28;20834;-47
2023/01/05 09:13:51;;;;;;;23.75;4.63;;;7.60;92.90;;;;;;5041620;28;20470;-47
2023/01/05 09:16:27;;;;;;;22.00;3.35;;;7.60;92.90;;;;;;5029949;28;20135;-48
2023/01/05 09:18:52;;;;;;;20.45;3.53;;;7.50;92.80;;;;;;5030961;28;20120;-48
2023/01/05 09:21:25;;;;;;;21.10;3.28;;;7.50;92.90;;;;;;5030590;28;20188;-46
2023/01/05 09:23:52;;;;;;;15.45;3.13;;;7.50;92.90;;;;;;5031095;28;20115;-50
2023/01/05 09:26:19;;;;;;;21.15;3.75;;;7.50;92.90;;;;;;5029469;28;20444;-48
2023/01/05 09:28:46;;;;;;;20.20;3.42;;;7.60;93.00;;;;;;5032653;28;20022;-49
2023/01/05 09:31:30;;;;;;;20.02;3.78;;;7.60;92.90;;;;;;5024285;28;20033;-46
2023/01/05 09:33:58;;;;;;;15.35;3.17;;;7.70;92.90;;;;;;5028648;28;20026;-47
2023/01/05 09:36:28;;;;;;;17.02;2.90;;;7.70;92.90;;;;;;5031276;28;20064;-44
2023/01/05 09:38:56;;;;;;;20.70;3.03;;;7.80;92.90;;;;;;5026602;28;20044;-46
2023/01/05 09:41:30;;;;;;;19.05;4.20;;;7.80;92.80;;;;;;5028687;28;20037;-47
2023/01/05 09:44:08;;;;;;;25.42;3.88;;;7.90;92.80;;;;;;5030338;28;20044;-51
2023/01/05 09:46:37;;;;;;;24.33;5.20;;;7.90;92.60;;;;;;5029927;28;20021;-44
2023/01/05 09:49:10;;;;;;;28.92;4.93;;;7.90;92.50;;;;;;5029326;28;20451;-44
2023/01/05 09:51:36;;;;;;;14.82;3.20;;;7.90;92.30;;;;;;5026862;28;20030;-49
2023/01/05 09:54:02;;;;;;;15.95;4.25;;;8.00;92.10;;;;;;5025958;28;20098;-44
2023/01/05 09:56:48;;;;;;;18.08;3.13;;;8.10;92.00;;;;;;5029601;28;20413;-44
2023/01/05 09:59:30;;;;;;;18.77;3.03;;;8.20;91.70;;;;;;5023684;28;20025;-45
2023/01/05 10:02:02;;;;;;;14.90;3.65;;;8.30;91.50;;;;;;5026810;28;20383;-47
2023/01/05 10:04:31;;;;;;;17.13;3.08;;;8.30;91.30;;;;;;5021839;28;20030;-45
2023/01/05 10:07:14;;;;;;;18.35;3.05;;;8.40;91.20;;;;;;5022974;28;20442;-44
2023/01/05 10:09:41;;;;;;;15.05;3.53;;;8.40;91.00;;;;;;5023239;28;20025;-44
2023/01/05 10:15:47;;;;;;;15.20;2.60;;;8.50;90.80;;;;;;5030060;28;20032;-49
2023/01/05 10:18:19;;;;;;;19.05;2.90;;;8.60;90.80;;;;;;5029870;28;20045;-46
2023/01/05 10:21:05;;;;;;;15.48;3.08;;;8.70;90.70;;;;;;5033036;28;20045;-44
2023/01/05 10:24:10;;;;;;;12.65;4.25;;;8.80;90.60;;;;;;5030277;28;20108;-49
2023/01/05 10:27:03;;;;;;;20.95;3.03;;;8.80;90.20;;;;;;5019645;28;20927;-46
2023/01/05 10:29:59;;;;;;;15.52;3.92;;;8.70;90.10;;;;;;5031059;28;20025;-46
2023/01/05 10:32:43;;;;;;;16.70;3.03;;;8.70;90.00;;;;;;5028564;28;20057;-43
2023/01/05 10:35:34;;;;;;;23.25;5.05;;;8.70;90.00;;;;;;5029223;28;20132;-44
2023/01/05 10:38:37;;;;;;;13.93;2.75;;;8.90;90.20;;;;;;5021831;28;20477;-47
2023/01/05 10:41:17;;;;;;;11.40;2.45;;;9.00;90.20;;;;;;5037262;28;20053;-44
2023/01/05 10:44:09;;;;;;;16.33;3.85;;;9.00;89.80;;;;;;5028405;28;20043;-47
2023/01/05 10:46:40;;;;;;;18.40;2.83;;;9.00;89.60;;;;;;5026339;28;20094;-46
2023/01/05 10:49:15;;;;;;;11.55;2.70;;;9.10;89.60;;;;;;5034096;28;20040;-50
2023/01/05 10:51:42;;;;;;;13.85;2.40;;;9.10;89.40;;;;;;5033624;28;20044;-47
2023/01/05 10:54:30;;;;;;;22.63;3.42;;;9.20;89.50;;;;;;5030231;28;20033;-47
2023/01/05 10:57:32;;;;;;;12.88;2.65;;;9.20;88.90;;;;;;5009534;28;20029;-45
2023/01/05 11:00:06;;;;;;;15.27;2.75;;;9.30;89.10;;;;;;5033948;28;20034;-47
2023/01/05 11:02:40;;;;;;;12.20;2.33;;;9.40;89.00;;;;;;5034612;28;20045;-45
2023/01/05 11:05:33;;;;;;;22.83;4.60;;;9.30;88.30;;;;;;5034270;28;20033;-45
2023/01/05 11:08:13;;;;;;;19.45;4.10;;;9.20;88.40;;;;;;5029272;28;20029;-50
2023/01/05 11:10:46;;;;;;;;;;;9.10;88.40;;;;;;5021368;28;20940;-47
2023/01/05 11:13:46;;;;;;;15.40;2.33;;;9.00;88.40;;;;;;5031676;28;19995;-47
2023/01/05 11:16:19;;;;;;;14.98;3.92;;;9.00;88.50;;;;;;5038895;28;20033;-46
2023/01/05 11:19:13;;;;;;;13.63;2.28;;;8.90;88.20;;;;;;5033648;28;20025;-47
2023/01/05 11:21:57;;;;;;;15.00;2.88;;;8.90;88.40;;;;;;5032953;28;20044;-48
2023/01/05 11:24:41;;;;;;;12.75;2.90;;;8.90;88.40;;;;;;5033213;28;20359;-46
2023/01/05 11:27:39;;;;;;;11.95;2.60;;;8.90;88.40;;;;;;5023469;28;20043;-47
2023/01/05 11:30:13;;;;;;;18.95;3.70;;;8.90;88.20;;;;;;5023536;28;20041;-47
2023/01/05 11:32:42;;;;;;;11.82;2.17;;;8.90;88.20;;;;;;5022386;28;20531;-49
2023/01/05 11:35:36;;;;;;;13.48;3.13;;;8.90;88.20;;;;;;5023753;28;20344;-47
2023/01/05 11:38:04;;;;;;;12.07;2.25;;;8.90;88.20;;;;;;5022623;28;20068;-48
2023/01/05 11:40:34;;;;;;;12.68;3.03;;;8.90;88.30;;;;;;5023330;28;20443;-49
2023/01/05 11:43:10;;;;;;;14.88;3.45;;;8.90;88.40;;;;;;5031568;28;20505;-49
2023/01/05 11:45:49;;;;;;;14.85;3.53;;;8.90;88.40;;;;;;5027064;28;20033;-45
2023/01/05 11:48:23;;;;;;;14.20;3.90;;;8.90;88.50;;;;;;5024828;28;20037;-47
2023/01/05 11:50:52;;;;;;;11.23;2.38;;;8.80;88.40;;;;;;5029222;28;20751;-49
2023/01/05 11:53:37;;;;;;;13.80;3.15;;;8.90;88.30;;;;;;5027089;28;20022;-47
2023/01/05 11:56:25;;;;;;;16.80;4.38;;;8.80;88.40;;;;;;5028656;28;20044;-49
2023/01/05 11:58:55;;;;;;;12.60;2.28;;;8.80;88.50;;;;;;5029628;28;20029;-49
2023/01/05 12:01:45;;;;;;;12.75;2.90;;;8.70;88.40;;;;;;5030853;28;20029;-50
2023/01/05 12:04:29;;;;;;;16.02;3.00;;;8.70;88.50;;;;;;5027541;28;20033;-50
2023/01/05 12:07:21;;;;;;;13.70;3.67;;;8.70;88.60;;;;;;5030786;28;20116;-46
2023/01/05 12:10:10;;;;;;;11.57;3.38;;;8.60;88.60;;;;;;5026816;28;20101;-49
2023/01/05 12:12:57;;;;;;;14.13;2.95;;;8.70;88.70;;;;;;5027341;28;20748;-47
2023/01/05 12:16:00;;;;;;;14.23;2.58;;;8.80;88.50;;;;;;5026735;28;20034;-47
2023/01/05 12:19:01;;;;;;;16.27;3.15;;;8.90;88.30;;;;;;5029620;28;20453;-45
2023/01/05 12:21:37;;;;;;;18.25;4.10;;;8.90;88.10;;;;;;5026565;28;20037;-48
2023/01/05 12:24:41;;;;;;;14.05;3.25;;;9.00;88.00;;;;;;5027740;28;20057;-46
2023/01/05 12:27:19;;;;;;;12.65;2.10;;;9.00;87.80;;;;;;5018999;28;20119;-48
2023/01/05 12:29:51;;;;;;;11.35;2.50;;;9.00;87.30;;;;;;5029981;28;20029;-46
2023/01/05 12:32:19;;;;;;;16.23;2.35;;;9.00;87.30;;;;;;5027201;28;20025;-49
2023/01/05 12:35:16;;;;;;;10.55;2.20;;;8.90;87.50;;;;;;5024790;28;20034;-47
2023/01/05 12:38:00;;;;;;;12.65;2.75;;;8.90;87.40;;;;;;5018692;28;20083;-47
2023/01/05 12:41:02;;;;;;;12.45;3.38;;;8.90;87.50;;;;;;5025097;28;20072;-47
2023/01/05 12:44:06;;;;;;;11.75;2.70;;;9.00;87.90;;;;;;5023031;28;20033;-46
2023/01/05 12:47:07;;;;;;;18.80;3.00;;;9.00;88.00;;;;;;5027541;28;20028;-48
2023/01/05 12:49:58;;;;;;;13.85;3.35;;;9.10;88.30;;;;;;5025354;28;20507;-49
2023/01/05 12:52:46;;;;;;;11.23;2.13;;;9.10;88.30;;;;;;5025338;28;20030;-50
2023/01/05 12:55:35;;;;;;;18.85;3.00;;;9.10;88.20;;;;;;5027674;28;20358;-48
2023/01/05 12:58:26;;;;;;;11.38;2.92;;;9.00;88.30;;;;;;5027323;28;20029;-46
2023/01/05 13:00:57;;;;;;;23.88;2.30;;;9.00;88.50;;;;;;5022465;28;20040;-53
2023/01/05 13:03:39;;;;;;;13.80;2.45;;;9.00;88.70;;;;;;5019619;28;20021;-53
2023/01/05 13:06:15;;;;;;;14.35;2.72;;;9.00;88.70;;;;;;5020307;28;20475;-48
2023/01/05 13:09:05;;;;;;;19.52;2.72;;;8.90;88.80;;;;;;5020708;28;20099;-46
2023/01/05 13:11:48;;;;;;;15.27;2.65;;;8.90;88.90;;;;;;5037919;28;20347;-52
2023/01/05 13:14:24;;;;;;;15.32;2.53;;;8.90;88.80;;;;;;4990304;28;20025;-47
2023/01/05 13:16:57;;;;;;;18.92;4.30;;;8.90;88.60;;;;;;5028341;28;20179;-47
2023/01/05 13:19:47;;;;;;;15.85;2.67;;;8.80;88.60;;;;;;5022904;28;20029;-48
2023/01/05 13:22:24;;;;;;;17.02;2.78;;;8.70;89.10;;;;;;5031032;28;20116;-49
2023/01/05 13:25:23;;;;;;;17.30;3.22;;;8.70;89.20;;;;;;5030242;28;20029;-50
2023/01/05 13:27:50;;;;;;;16.30;3.20;;;8.60;89.40;;;;;;5041038;28;20046;-49
2023/01/05 13:30:32;;;;;;;18.63;2.88;;;8.50;89.70;;;;;;5028683;28;20037;-50
2023/01/05 13:33:43;;;;;;;19.90;3.53;;;8.50;90.00;;;;;;5030843;28;20033;-49
2023/01/05 13:36:47;;;;;;;11.30;2.55;;;8.50;90.00;;;;;;5023968;28;20486;-49
2023/01/05 13:39:34;;;;;;;20.52;3.55;;;8.50;90.00;;;;;;5024889;28;20050;-50
2023/01/05 13:42:36;;;;;;;10.95;3.28;;;8.50;90.20;;;;;;5030072;28;20060;-52
2023/01/05 13:45:13;;;;;;;16.77;2.95;;;8.60;90.20;;;;;;5044143;28;20098;-49
2023/01/05 13:48:16;;;;;;;15.77;3.63;;;8.50;90.20;;;;;;5018246;28;20466;-49
2023/01/05 13:51:19;;;;;;;17.52;2.83;;;8.50;90.30;;;;;;5023717;28;20032;-46
2023/01/05 13:53:50;;;;;;;21.08;4.43;;;8.60;90.30;;;;;;5017863;28;20033;-49
2023/01/05 13:56:21;;;;;;;22.85;3.40;;;8.50;90.20;;;;;;5023649;28;20140;-48
2023/01/05 13:59:04;;;;;;;10.55;2.60;;;8.50;90.10;;;;;;5022693;28;20025;-47